New York, NY (10013)

9:59 PM EDT on September 23, 2014 (GMT -0400)
Williamsburg | Change Station
CLOSE
Current Station
Personal Weather Station
Location: Brooklyn, NY
Elevation: 64 ft
Nearby Weather Stations

Elev 64 ft 40.72 °N, 73.96 °W | Updated 39 seconds ago

Clear
Clear
61.9 °F
Feels Like 61.9 °F
N
3.8
Wind Variable Wind from SE
Gusts 6.9 mph

Today
High -- | Low -- °F
--% Chance of Precip.
Yesterday
High -- | Low -- °F
Precip. -- in
6:44 AM 6:51 PM
Waning Crescent, 0% visible
Pressure 30.39 in
Visibility 10.0 miles
Clouds Clear
Dew Point 46 °F
Humidity 54%
Rainfall 0.00 in
Snow Depth Not available.
UV 0 out of 12
Pollen 3.10 out of 12
PM2.5 Good
Flu Activity Not available.
METAR KNYC 240151Z AUTO 00000KT 10SM CLR 17/11 A3041 RMK AO2 SLP290 T01720106 $

More Conditions Fewer Conditions

Pressure 30.39 in
Visibility 10.0 miles
Clouds Clear
Dew Point 46 °F
Humidity 54%
Rainfall 0.00 in
Snow Depth Not available.
UV 0 out of 12
Pollen 3.10 out of 12
PM2.5 Good
Flu Activity Not available.
METAR KNYC 240151Z AUTO 00000KT 10SM CLR 17/11 A3041 RMK AO2 SLP290 T01720106 $

More Conditions Fewer Conditions

10-Day Weather Forecast

Almanac

Astronomy

Sep. 23, 2014 Rise Set
Actual Time 6:44 AM EDT 6:51 PM EDT
Civil Twilight 6:17 AM EDT 7:18 PM EDT
Nautical Twilight 5:45 AM EDT 7:50 PM EDT
Astronomical Twilight 5:12 AM EDT 8:23 PM EDT
Moon 6:06 AM EDT (9/23) 6:28 PM EDT (9/23)
Length of Visible Light 13h 01m
Length of Day
12h 07m
Tomorrow will be 2m 41s shorter.
Waning Crescent, 0% of the Moon is Illuminated
Today
Waning Crescent
Sep 24
New
Oct 1
First Quarter
Oct 8
Full
Oct 15
Last Quarter

Today's Extremes

State Highs State Lows

Community

WunderPhotos

Upload Photos

1,755,844 photos uploaded!

Nearby

Air Quality

  Air Quality AQ Index Pollutant
Yesterday Good
OZONE
Yesterday Good
PM2.5
Current Good
PM2.5
Tuesday Good
PM2.5
Tuesday Good
OZONE
Wednesday Good
PM2.5
Wednesday Good
OZONE

Snow Depth

Station Depth Elevation
No new snow has been reported.

Earthquake Activity

City Distance Mag. Time & Date
No recent earthquake activity has been reported nearby.
Minimum magnitude displayed is 2.5.

Coastal Water Temperatures

Place Temperature
Sandy Hook, NJ 69.1 °F
The Battery, NY 70.0 °F
Bergen Point West Reach, NJ 69.1 °F
Kings Point, NY 66.9 °F

Nearby Weather Stations